sensor_id;sensor_type;location;lat;lon;timestamp;pressure;altitude;pressure_sealevel;temperature;humidity
69909;BME280;57190;47.918;8.112;2023-05-19T00:01:08;91138.66;;;8.24;64.66
69909;BME280;57190;47.918;8.112;2023-05-19T00:03:35;91142.81;;;8.19;65.06
69909;BME280;57190;47.918;8.112;2023-05-19T00:06:06;91139.13;;;8.21;65.08
69909;BME280;57190;47.918;8.112;2023-05-19T00:08:36;91136.16;;;8.17;64.44
69909;BME280;57190;47.918;8.112;2023-05-19T00:11:02;91134.81;;;8.14;64.93
69909;BME280;57190;47.918;8.112;2023-05-19T00:13:28;91129.47;;;8.14;64.35
69909;BME280;57190;47.918;8.112;2023-05-19T00:15:54;91130.28;;;8.15;64.41
69909;BME280;57190;47.918;8.112;2023-05-19T00:18:20;91126.81;;;8.14;64.39
69909;BME280;57190;47.918;8.112;2023-05-19T00:20:45;91126.81;;;8.14;64.56
69909;BME280;57190;47.918;8.112;2023-05-19T00:23:11;91130.53;;;8.13;64.08
69909;BME280;57190;47.918;8.112;2023-05-19T00:25:36;91135.13;;;8.18;64.27
69909;BME280;57190;47.918;8.112;2023-05-19T00:28:02;91135.22;;;8.06;64.76
69909;BME280;57190;47.918;8.112;2023-05-19T00:30:28;91131.53;;;8.07;64.73
69909;BME280;57190;47.918;8.112;2023-05-19T00:32:54;91127.97;;;8.01;64.99
69909;BME280;57190;47.918;8.112;2023-05-19T00:35:20;91122.41;;;8.03;64.75
69909;BME280;57190;47.918;8.112;2023-05-19T00:37:47;91126.69;;;8.04;64.74
69909;BME280;57190;47.918;8.112;2023-05-19T00:40:13;91128.78;;;8.02;64.63
69909;BME280;57190;47.918;8.112;2023-05-19T00:42:39;91118.41;;;8.00;65.03
69909;BME280;57190;47.918;8.112;2023-05-19T00:45:05;91121.06;;;8.00;65.02
69909;BME280;57190;47.918;8.112;2023-05-19T00:47:31;91115.19;;;7.98;65.14
69909;BME280;57190;47.918;8.112;2023-05-19T00:49:57;91118.66;;;7.99;65.01
69909;BME280;57190;47.918;8.112;2023-05-19T00:52:23;91123.72;;;8.00;65.25
69909;BME280;57190;47.918;8.112;2023-05-19T00:54:50;91126.88;;;7.97;65.33
69909;BME280;57190;47.918;8.112;2023-05-19T00:57:16;91115.50;;;8.02;65.17
69909;BME280;57190;47.918;8.112;2023-05-19T00:59:41;91114.88;;;7.95;65.35
69909;BME280;57190;47.918;8.112;2023-05-19T01:02:07;91117.59;;;8.00;65.22
69909;BME280;57190;47.918;8.112;2023-05-19T01:04:34;91118.22;;;8.07;64.92
69909;BME280;57190;47.918;8.112;2023-05-19T01:07:01;91112.03;;;8.01;65.22
69909;BME280;57190;47.918;8.112;2023-05-19T01:09:27;91113.34;;;7.99;65.40
69909;BME280;57190;47.918;8.112;2023-05-19T01:11:52;91105.53;;;7.92;65.53
69909;BME280;57190;47.918;8.112;2023-05-19T01:14:19;91103.13;;;7.91;65.74
69909;BME280;57190;47.918;8.112;2023-05-19T01:17:06;91107.31;;;7.86;66.03
69909;BME280;57190;47.918;8.112;2023-05-19T01:25:41;91096.94;;;7.85;65.95
69909;BME280;57190;47.918;8.112;2023-05-19T01:28:49;91101.78;;;7.88;66.18
69909;BME280;57190;47.918;8.112;2023-05-19T01:31:20;91099.91;;;7.89;66.14
69909;BME280;57190;47.918;8.112;2023-05-19T01:33:48;91096.94;;;7.85;66.11
69909;BME280;57190;47.918;8.112;2023-05-19T01:36:16;91091.06;;;7.83;66.14
69909;BME280;57190;47.918;8.112;2023-05-19T01:38:44;91086.50;;;7.78;66.19
69909;BME280;57190;47.918;8.112;2023-05-19T01:41:11;91091.47;;;7.75;66.68
69909;BME280;57190;47.918;8.112;2023-05-19T01:43:39;91087.22;;;7.74;66.79
69909;BME280;57190;47.918;8.112;2023-05-19T01:46:05;91079.56;;;7.77;66.59
69909;BME280;57190;47.918;8.112;2023-05-19T01:48:32;91080.63;;;7.76;66.71
69909;BME280;57190;47.918;8.112;2023-05-19T01:50:58;91083.78;;;7.73;67.10
69909;BME280;57190;47.918;8.112;2023-05-19T01:53:24;91082.94;;;7.72;66.69
69909;BME280;57190;47.918;8.112;2023-05-19T01:55:52;91089.34;;;7.71;66.79
69909;BME280;57190;47.918;8.112;2023-05-19T01:58:35;91081.38;;;7.71;66.92
69909;BME280;57190;47.918;8.112;2023-05-19T02:01:09;91089.34;;;7.71;66.77
69909;BME280;57190;47.918;8.112;2023-05-19T02:11:51;91085.94;;;7.76;67.05
69909;BME280;57190;47.918;8.112;2023-05-19T02:14:38;91081.84;;;7.68;67.14
69909;BME280;57190;47.918;8.112;2023-05-19T02:17:04;91099.88;;;7.66;67.16
69909;BME280;57190;47.918;8.112;2023-05-19T02:19:32;91095.38;;;7.67;67.62
69909;BME280;57190;47.918;8.112;2023-05-19T02:21:58;91098.09;;;7.72;67.22
69909;BME280;57190;47.918;8.112;2023-05-19T02:24:24;91095.38;;;7.67;67.36
69909;BME280;57190;47.918;8.112;2023-05-19T02:26:51;91093.75;;;7.66;67.52
69909;BME280;57190;47.918;8.112;2023-05-19T02:29:16;91091.09;;;7.66;67.51
69909;BME280;57190;47.918;8.112;2023-05-19T02:31:42;91091.09;;;7.66;67.52
69909;BME280;57190;47.918;8.112;2023-05-19T02:34:07;91096.41;;;7.66;67.81
69909;BME280;57190;47.918;8.112;2023-05-19T02:36:34;91097.16;;;7.61;67.90
69909;BME280;57190;47.918;8.112;2023-05-19T02:39:01;91103.81;;;7.64;67.76
69909;BME280;57190;47.918;8.112;2023-05-19T02:41:27;91098.97;;;7.61;67.83
69909;BME280;57190;47.918;8.112;2023-05-19T02:43:52;91098.50;;;7.64;67.85
69909;BME280;57190;47.918;8.112;2023-05-19T02:46:18;91097.06;;;7.56;68.13
69909;BME280;57190;47.918;8.112;2023-05-19T02:48:43;91095.63;;;7.48;68.55
69909;BME280;57190;47.918;8.112;2023-05-19T02:51:09;91090.78;;;7.45;68.75
69909;BME280;57190;47.918;8.112;2023-05-19T02:53:35;91094.75;;;7.43;68.67
69909;BME280;57190;47.918;8.112;2023-05-19T02:56:00;91084.38;;;7.41;68.94
69909;BME280;57190;47.918;8.112;2023-05-19T02:58:26;91084.91;;;7.43;68.71
69909;BME280;57190;47.918;8.112;2023-05-19T03:00:51;91077.53;;;7.45;68.57
69909;BME280;57190;47.918;8.112;2023-05-19T03:03:17;91084.13;;;7.43;68.51
69909;BME280;57190;47.918;8.112;2023-05-19T03:05:42;91081.16;;;7.39;68.82
69909;BME280;57190;47.918;8.112;2023-05-19T03:08:08;91084.84;;;7.38;68.82
69909;BME280;57190;47.918;8.112;2023-05-19T03:10:34;91079.22;;;7.34;69.12
69909;BME280;57190;47.918;8.112;2023-05-19T03:12:59;91075.78;;;7.34;69.00
69909;BME280;57190;47.918;8.112;2023-05-19T03:15:25;91076.56;;;7.34;69.09
69909;BME280;57190;47.918;8.112;2023-05-19T03:17:50;91076.56;;;7.34;69.41
69909;BME280;57190;47.918;8.112;2023-05-19T03:20:16;91085.56;;;7.33;69.34
69909;BME280;57190;47.918;8.112;2023-05-19T03:22:42;91073.13;;;7.34;69.65
69909;BME280;57190;47.918;8.112;2023-05-19T03:25:08;91076.25;;;7.31;69.43
69909;BME280;57190;47.918;8.112;2023-05-19T03:27:34;91074.16;;;7.33;69.25
69909;BME280;57190;47.918;8.112;2023-05-19T03:29:59;91068.03;;;7.32;69.31
69909;BME280;57190;47.918;8.112;2023-05-19T03:32:50;91070.38;;;7.29;69.10
69909;BME280;57190;47.918;8.112;2023-05-19T03:35:16;91069.31;;;7.30;69.31
69909;BME280;57190;47.918;8.112;2023-05-19T03:37:42;91068.75;;;7.28;69.62
69909;BME280;57190;47.918;8.112;2023-05-19T03:40:08;91074.00;;;7.22;69.60
69909;BME280;57190;47.918;8.112;2023-05-19T03:42:33;91075.28;;;7.20;70.16
69909;BME280;57190;47.918;8.112;2023-05-19T03:44:59;91071.03;;;7.19;69.80
69909;BME280;57190;47.918;8.112;2023-05-19T03:47:24;91071.59;;;7.21;69.76
69909;BME280;57190;47.918;8.112;2023-05-19T03:49:50;91077.44;;;7.23;69.45
69909;BME280;57190;47.918;8.112;2023-05-19T03:52:15;91078.97;;;7.19;69.87
69909;BME280;57190;47.918;8.112;2023-05-19T03:54:41;91078.41;;;7.17;69.82
69909;BME280;57190;47.918;8.112;2023-05-19T03:57:08;91079.44;;;7.16;70.19
69909;BME280;57190;47.918;8.112;2023-05-19T03:59:37;91082.69;;;7.18;69.93
69909;BME280;57190;47.918;8.112;2023-05-19T04:02:06;91076.06;;;7.20;69.82
69909;BME280;57190;47.918;8.112;2023-05-19T04:04:31;91081.88;;;7.17;69.54
69909;BME280;57190;47.918;8.112;2023-05-19T04:06:57;91080.81;;;7.18;69.77
69909;BME280;57190;47.918;8.112;2023-05-19T04:09:22;91076.91;;;7.21;70.29
69909;BME280;57190;47.918;8.112;2023-05-19T04:11:48;91084.84;;;7.21;69.85
69909;BME280;57190;47.918;8.112;2023-05-19T04:14:14;91084.84;;;7.21;69.74
69909;BME280;57190;47.918;8.112;2023-05-19T04:16:40;91081.38;;;7.20;69.91
69909;BME280;57190;47.918;8.112;2023-05-19T04:19:06;91092.31;;;7.24;69.67
69909;BME280;57190;47.918;8.112;2023-05-19T04:21:31;91092.16;;;7.31;69.98
69909;BME280;57190;47.918;8.112;2023-05-19T04:23:57;91086.13;;;7.35;69.67
69909;BME280;57190;47.918;8.112;2023-05-19T04:26:24;91085.97;;;7.42;69.77
69909;BME280;57190;47.918;8.112;2023-05-19T04:28:51;91087.50;;;7.55;69.39
69909;BME280;57190;47.918;8.112;2023-05-19T04:31:18;91080.97;;;7.63;68.70
69909;BME280;57190;47.918;8.112;2023-05-19T04:33:45;91080.88;;;7.75;68.67
69909;BME280;57190;47.918;8.112;2023-05-19T04:36:12;91090.84;;;7.84;68.17
69909;BME280;57190;47.918;8.112;2023-05-19T04:38:38;91082.53;;;8.20;67.13
69909;BME280;57190;47.918;8.112;2023-05-19T04:41:07;91083.06;;;8.44;66.74
69909;BME280;57190;47.918;8.112;2023-05-19T04:43:39;91091.34;;;8.70;65.10
69909;BME280;57190;47.918;8.112;2023-05-19T04:46:11;91085.16;;;9.14;64.58
69909;BME280;57190;47.918;8.112;2023-05-19T04:48:37;91088.22;;;9.66;62.80
69909;BME280;57190;47.918;8.112;2023-05-19T04:51:02;91085.28;;;10.10;61.28
69909;BME280;57190;47.918;8.112;2023-05-19T04:53:28;91081.72;;;10.37;59.99
69909;BME280;57190;47.918;8.112;2023-05-19T04:55:54;91082.97;;;10.88;58.99
69909;BME280;57190;47.918;8.112;2023-05-19T04:58:21;91081.41;;;11.17;57.75
69909;BME280;57190;47.918;8.112;2023-05-19T05:00:50;91074.50;;;11.32;56.58
69909;BME280;57190;47.918;8.112;2023-05-19T05:03:15;91075.31;;;11.63;56.27
69909;BME280;57190;47.918;8.112;2023-05-19T05:05:41;91080.66;;;11.58;55.79
69909;BME280;57190;47.918;8.112;2023-05-19T05:08:09;91074.25;;;11.70;55.89
69909;BME280;57190;47.918;8.112;2023-05-19T05:10:35;91077.19;;;11.58;55.63
69909;BME280;57190;47.918;8.112;2023-05-19T05:13:01;91074.22;;;11.03;56.31
69909;BME280;57190;47.918;8.112;2023-05-19T05:15:26;91072.59;;;10.33;58.46
69909;BME280;57190;47.918;8.112;2023-05-19T05:17:54;91080.88;;;9.83;59.64
69909;BME280;57190;47.918;8.112;2023-05-19T05:20:20;91077.44;;;9.50;61.01
69909;BME280;57190;47.918;8.112;2023-05-19T05:22:46;91074.66;;;9.35;62.21
69909;BME280;57190;47.918;8.112;2023-05-19T05:25:13;91068.25;;;9.31;62.38
69909;BME280;57190;47.918;8.112;2023-05-19T05:27:38;91072.75;;;9.25;61.92
69909;BME280;57190;47.918;8.112;2023-05-19T05:30:04;91070.19;;;9.08;62.64
69909;BME280;57190;47.918;8.112;2023-05-19T05:32:30;91071.47;;;9.00;63.22
69909;BME280;57190;47.918;8.112;2023-05-19T05:41:38;91067.78;;;9.06;63.02
69909;BME280;57190;47.918;8.112;2023-05-19T05:44:04;91070.41;;;9.01;63.07
69909;BME280;57190;47.918;8.112;2023-05-19T05:46:30;91073.28;;;9.00;63.05
69909;BME280;57190;47.918;8.112;2023-05-19T05:48:56;91072.84;;;9.08;62.07
69909;BME280;57190;47.918;8.112;2023-05-19T05:51:22;91083.78;;;9.11;62.53
69909;BME280;57190;47.918;8.112;2023-05-19T05:53:51;91079.72;;;9.04;63.20
69909;BME280;57190;47.918;8.112;2023-05-19T05:56:18;91082.72;;;9.12;62.51
69909;BME280;57190;47.918;8.112;2023-05-19T05:58:44;91076.41;;;9.19;62.41
69909;BME280;57190;47.918;8.112;2023-05-19T06:01:09;91074.63;;;9.30;62.55
69909;BME280;57190;47.918;8.112;2023-05-19T06:03:41;91078.84;;;9.25;62.09
69909;BME280;57190;47.918;8.112;2023-05-19T06:06:09;91081.88;;;9.34;62.15
69909;BME280;57190;47.918;8.112;2023-05-19T06:08:35;91076.25;;;9.31;61.59
69909;BME280;57190;47.918;8.112;2023-05-19T06:11:01;91067.34;;;9.52;61.26
69909;BME280;57190;47.918;8.112;2023-05-19T06:13:35;91075.63;;;9.56;60.93
69909;BME280;57190;47.918;8.112;2023-05-19T06:16:01;91071.16;;;9.62;60.28
69909;BME280;57190;47.918;8.112;2023-05-19T06:18:27;91064.41;;;9.54;60.79
69909;BME280;57190;47.918;8.112;2023-05-19T06:20:53;91065.56;;;9.63;60.37
69909;BME280;57190;47.918;8.112;2023-05-19T06:23:18;91057.63;;;9.68;60.32
69909;BME280;57190;47.918;8.112;2023-05-19T06:25:44;91070.13;;;9.68;61.39
69909;BME280;57190;47.918;8.112;2023-05-19T06:28:10;91071.47;;;9.70;60.40
69909;BME280;57190;47.918;8.112;2023-05-19T06:30:35;91066.97;;;9.76;59.99
69909;BME280;57190;47.918;8.112;2023-05-19T06:33:01;91065.94;;;9.82;59.85
69909;BME280;57190;47.918;8.112;2023-05-19T06:35:28;91067.88;;;9.92;59.82
69909;BME280;57190;47.918;8.112;2023-05-19T06:37:53;91065.59;;;10.11;59.36
69909;BME280;57190;47.918;8.112;2023-05-19T06:40:20;91062.94;;;10.16;59.18
69909;BME280;57190;47.918;8.112;2023-05-19T06:42:46;91074.19;;;10.23;58.98
69909;BME280;57190;47.918;8.112;2023-05-19T06:45:12;91072.03;;;10.26;58.91
69909;BME280;57190;47.918;8.112;2023-05-19T06:47:37;91072.19;;;10.46;59.26
69909;BME280;57190;47.918;8.112;2023-05-19T06:50:05;91069.19;;;10.37;58.22
69909;BME280;57190;47.918;8.112;2023-05-19T06:52:30;91065.97;;;10.35;58.68
69909;BME280;57190;47.918;8.112;2023-05-19T06:54:56;91068.41;;;10.42;58.12
69909;BME280;57190;47.918;8.112;2023-05-19T06:57:21;91073.50;;;10.49;58.59
69909;BME280;57190;47.918;8.112;2023-05-19T06:59:47;91063.72;;;10.75;58.57
69909;BME280;57190;47.918;8.112;2023-05-19T07:02:12;91068.59;;;11.04;58.37
69909;BME280;57190;47.918;8.112;2023-05-19T07:04:38;91069.97;;;11.12;57.68
69909;BME280;57190;47.918;8.112;2023-05-19T07:07:04;91069.41;;;11.15;58.16
69909;BME280;57190;47.918;8.112;2023-05-19T07:09:29;91064.06;;;11.15;56.49
69909;BME280;57190;47.918;8.112;2023-05-19T07:11:55;91063.03;;;11.26;56.62
69909;BME280;57190;47.918;8.112;2023-05-19T07:14:21;91057.13;;;11.04;56.65
69909;BME280;57190;47.918;8.112;2023-05-19T07:16:46;91065.94;;;11.20;56.73
69909;BME280;57190;47.918;8.112;2023-05-19T07:19:12;91066.25;;;11.28;56.35
69909;BME280;57190;47.918;8.112;2023-05-19T07:21:38;91067.81;;;11.55;56.68
69909;BME280;57190;47.918;8.112;2023-05-19T07:24:03;91064.34;;;11.80;55.11
69909;BME280;57190;47.918;8.112;2023-05-19T07:26:29;91073.91;;;12.33;54.68
69909;BME280;57190;47.918;8.112;2023-05-19T07:28:55;91069.16;;;12.80;53.60
69909;BME280;57190;47.918;8.112;2023-05-19T07:31:22;91063.91;;;13.10;52.10
69909;BME280;57190;47.918;8.112;2023-05-19T07:33:47;91059.81;;;12.78;52.48
69909;BME280;57190;47.918;8.112;2023-05-19T07:36:13;91067.28;;;12.81;52.81
69909;BME280;57190;47.918;8.112;2023-05-19T07:38:38;91063.03;;;12.74;52.42
69909;BME280;57190;47.918;8.112;2023-05-19T07:41:03;91054.19;;;12.74;53.05
69909;BME280;57190;47.918;8.112;2023-05-19T07:43:29;91054.38;;;12.93;52.89
69909;BME280;57190;47.918;8.112;2023-05-19T07:45:55;91058.38;;;13.35;52.44
69909;BME280;57190;47.918;8.112;2023-05-19T07:48:21;91048.44;;;13.46;51.87
69909;BME280;57190;47.918;8.112;2023-05-19T07:50:49;91051.38;;;13.45;51.31
69909;BME280;57190;47.918;8.112;2023-05-19T07:53:15;91046.56;;;13.02;52.21
69909;BME280;57190;47.918;8.112;2023-05-19T07:55:41;91050.38;;;12.90;53.49
69909;BME280;57190;47.918;8.112;2023-05-19T07:58:06;91045.69;;;13.12;52.07
69909;BME280;57190;47.918;8.112;2023-05-19T08:00:32;91046.28;;;13.03;52.70
69909;BME280;57190;47.918;8.112;2023-05-19T08:02:58;91041.09;;;13.17;52.40
69909;BME280;57190;47.918;8.112;2023-05-19T08:05:23;91050.69;;;13.29;52.14
69909;BME280;57190;47.918;8.112;2023-05-19T08:07:50;91052.09;;;13.61;52.38
69909;BME280;57190;47.918;8.112;2023-05-19T08:10:16;91048.88;;;13.93;50.93
69909;BME280;57190;47.918;8.112;2023-05-19T08:12:41;91048.84;;;13.64;51.43
69909;BME280;57190;47.918;8.112;2023-05-19T08:15:09;91048.47;;;13.76;51.08
69909;BME280;57190;47.918;8.112;2023-05-19T08:17:38;91040.19;;;13.43;51.10
69909;BME280;57190;47.918;8.112;2023-05-19T08:20:04;91045.88;;;13.65;51.79
69909;BME280;57190;47.918;8.112;2023-05-19T08:22:32;91047.16;;;14.03;51.43
69909;BME280;57190;47.918;8.112;2023-05-19T08:38:56;91034.19;;;13.86;51.36
69909;BME280;57190;47.918;8.112;2023-05-19T08:41:21;91032.78;;;13.24;51.56
69909;BME280;57190;47.918;8.112;2023-05-19T08:43:47;91033.56;;;13.25;51.26
69909;BME280;57190;47.918;8.112;2023-05-19T08:46:15;91027.84;;;13.36;51.86
69909;BME280;57190;47.918;8.112;2023-05-19T08:48:41;91022.53;;;13.31;52.24
69909;BME280;57190;47.918;8.112;2023-05-19T08:51:31;91021.97;;;12.95;52.66
69909;BME280;57190;47.918;8.112;2023-05-19T08:54:12;91030.88;;;13.25;53.21
69909;BME280;57190;47.918;8.112;2023-05-19T09:00:01;91028.59;;;13.47;51.59
69909;BME280;57190;47.918;8.112;2023-05-19T09:02:29;91024.16;;;13.27;52.23
69909;BME280;57190;47.918;8.112;2023-05-19T09:04:55;91023.06;;;12.94;52.82
69909;BME280;57190;47.918;8.112;2023-05-19T09:07:21;91034.28;;;12.35;53.77
69909;BME280;57190;47.918;8.112;2023-05-19T09:09:49;91024.19;;;12.22;54.34
69909;BME280;57190;47.918;8.112;2023-05-19T09:12:15;91038.94;;;11.99;54.58
69909;BME280;57190;47.918;8.112;2023-05-19T09:14:40;91037.09;;;11.99;55.19
69909;BME280;57190;47.918;8.112;2023-05-19T09:17:06;91027.56;;;12.53;55.24
69909;BME280;57190;47.918;8.112;2023-05-19T09:19:32;91025.34;;;12.71;54.40
69909;BME280;57190;47.918;8.112;2023-05-19T09:21:58;91031.09;;;12.94;53.64
69909;BME280;57190;47.918;8.112;2023-05-19T09:24:33;91029.75;;;13.36;51.79
69909;BME280;57190;47.918;8.112;2023-05-19T09:26:59;91030.66;;;13.61;52.79
69909;BME280;57190;47.918;8.112;2023-05-19T09:29:24;91034.25;;;13.75;52.39
69909;BME280;57190;47.918;8.112;2023-05-19T09:31:54;91030.94;;;13.59;51.83
69909;BME280;57190;47.918;8.112;2023-05-19T09:34:24;91032.66;;;13.00;52.78
69909;BME280;57190;47.918;8.112;2023-05-19T09:36:52;91035.13;;;12.91;52.71
69909;BME280;57190;47.918;8.112;2023-05-19T09:39:19;91037.09;;;12.65;53.29
69909;BME280;57190;47.918;8.112;2023-05-19T09:41:45;91036.03;;;12.66;53.09
69909;BME280;57190;47.918;8.112;2023-05-19T09:44:20;91029.03;;;12.75;53.76
69909;BME280;57190;47.918;8.112;2023-05-19T09:46:51;91034.34;;;13.65;52.92
69909;BME280;57190;47.918;8.112;2023-05-19T09:49:26;91023.38;;;13.96;50.21
69909;BME280;57190;47.918;8.112;2023-05-19T09:51:58;91028.97;;;13.65;51.50
69909;BME280;57190;47.918;8.112;2023-05-19T09:54:24;91027.28;;;13.45;52.90
69909;BME280;57190;47.918;8.112;2023-05-19T09:57:01;91032.41;;;13.36;53.23
69909;BME280;57190;47.918;8.112;2023-05-19T09:59:28;91022.72;;;13.45;51.86
69909;BME280;57190;47.918;8.112;2023-05-19T10:01:55;91025.06;;;13.52;52.19
69909;BME280;57190;47.918;8.112;2023-05-19T10:04:22;91032.28;;;13.57;52.20
69909;BME280;57190;47.918;8.112;2023-05-19T10:06:52;91036.69;;;13.37;52.66
69909;BME280;57190;47.918;8.112;2023-05-19T10:09:22;91032.09;;;13.03;52.42
69909;BME280;57190;47.918;8.112;2023-05-19T10:11:54;91039.00;;;12.64;53.34
69909;BME280;57190;47.918;8.112;2023-05-19T10:14:24;91037.34;;;12.68;54.47
69909;BME280;57190;47.918;8.112;2023-05-19T10:16:51;91038.75;;;12.61;55.05
69909;BME280;57190;47.918;8.112;2023-05-19T10:19:22;91031.53;;;12.56;54.36
69909;BME280;57190;47.918;8.112;2023-05-19T10:21:48;91033.47;;;12.40;55.11
69909;BME280;57190;47.918;8.112;2023-05-19T10:24:14;91029.97;;;12.45;55.57
69909;BME280;57190;47.918;8.112;2023-05-19T10:26:52;91030.28;;;12.33;54.85
69909;BME280;57190;47.918;8.112;2023-05-19T10:29:26;91021.00;;;12.75;53.68
69909;BME280;57190;47.918;8.112;2023-05-19T10:31:54;91026.09;;;13.21;53.76
69909;BME280;57190;47.918;8.112;2023-05-19T10:39:57;91029.06;;;13.15;53.00
69909;BME280;57190;47.918;8.112;2023-05-19T10:42:35;91021.41;;;13.03;52.84
69909;BME280;57190;47.918;8.112;2023-05-19T10:47:36;91025.97;;;12.97;53.41
69909;BME280;57190;47.918;8.112;2023-05-19T10:50:03;91026.88;;;13.22;52.87
69909;BME280;57190;47.918;8.112;2023-05-19T10:52:36;91019.28;;;13.40;52.58
69909;BME280;57190;47.918;8.112;2023-05-19T10:55:02;91020.63;;;13.37;52.50
69909;BME280;57190;47.918;8.112;2023-05-19T10:57:32;91019.31;;;13.29;52.67
69909;BME280;57190;47.918;8.112;2023-05-19T11:00:01;91026.00;;;13.32;53.02
69909;BME280;57190;47.918;8.112;2023-05-19T11:02:40;91023.03;;;13.39;52.83
69909;BME280;57190;47.918;8.112;2023-05-19T11:05:15;91029.75;;;13.31;53.10
69909;BME280;57190;47.918;8.112;2023-05-19T11:07:43;91028.91;;;13.01;54.70
69909;BME280;57190;47.918;8.112;2023-05-19T11:10:22;91025.31;;;13.16;54.51
69909;BME280;57190;47.918;8.112;2023-05-19T11:12:49;91028.00;;;13.16;54.48
69909;BME280;57190;47.918;8.112;2023-05-19T11:15:15;91027.03;;;12.96;54.35
69909;BME280;57190;47.918;8.112;2023-05-19T11:17:44;91029.44;;;12.98;54.94
69909;BME280;57190;47.918;8.112;2023-05-19T11:20:30;91035.31;;;13.00;55.28
69909;BME280;57190;47.918;8.112;2023-05-19T11:23:15;91038.72;;;13.16;54.32
69909;BME280;57190;47.918;8.112;2023-05-19T11:25:51;91035.38;;;13.40;53.69
69909;BME280;57190;47.918;8.112;2023-05-19T11:28:22;91035.09;;;13.36;54.09
69909;BME280;57190;47.918;8.112;2023-05-19T11:30:56;91035.97;;;13.26;53.20
69909;BME280;57190;47.918;8.112;2023-05-19T11:33:24;91030.94;;;13.14;54.02
69909;BME280;57190;47.918;8.112;2023-05-19T11:35:54;91040.34;;;13.12;54.07
69909;BME280;57190;47.918;8.112;2023-05-19T11:38:22;91042.47;;;13.15;54.53
69909;BME280;57190;47.918;8.112;2023-05-19T11:40:48;91032.97;;;13.33;53.85
69909;BME280;57190;47.918;8.112;2023-05-19T11:43:17;91032.00;;;13.58;54.16
69909;BME280;57190;47.918;8.112;2023-05-19T11:45:42;91029.97;;;13.74;53.11
69909;BME280;57190;47.918;8.112;2023-05-19T11:48:11;91025.53;;;13.64;53.66
69909;BME280;57190;47.918;8.112;2023-05-19T11:50:39;91036.16;;;13.40;53.74
69909;BME280;57190;47.918;8.112;2023-05-19T11:53:05;91032.47;;;13.26;53.59
69909;BME280;57190;47.918;8.112;2023-05-19T11:55:31;91025.44;;;13.40;53.29
69909;BME280;57190;47.918;8.112;2023-05-19T11:57:57;91023.75;;;13.49;53.77
69909;BME280;57190;47.918;8.112;2023-05-19T12:00:27;91019.84;;;13.71;53.71
69909;BME280;57190;47.918;8.112;2023-05-19T12:02:53;91029.81;;;13.95;52.85
69909;BME280;57190;47.918;8.112;2023-05-19T12:05:23;91019.03;;;13.71;52.12
69909;BME280;57190;47.918;8.112;2023-05-19T12:07:51;91016.56;;;13.74;52.72
69909;BME280;57190;47.918;8.112;2023-05-19T12:10:27;91014.88;;;13.54;52.28
69909;BME280;57190;47.918;8.112;2023-05-19T12:12:54;91022.16;;;13.48;53.50
69909;BME280;57190;47.918;8.112;2023-05-19T12:15:21;91024.38;;;13.36;54.26
69909;BME280;57190;47.918;8.112;2023-05-19T12:17:57;91026.88;;;13.22;54.63
69909;BME280;57190;47.918;8.112;2023-05-19T12:20:27;91021.41;;;13.03;54.25
69909;BME280;57190;47.918;8.112;2023-05-19T12:22:54;91023.28;;;12.97;55.01
69909;BME280;57190;47.918;8.112;2023-05-19T12:25:20;91021.41;;;12.98;55.04
69909;BME280;57190;47.918;8.112;2023-05-19T12:27:46;91022.88;;;13.19;54.15
69909;BME280;57190;47.918;8.112;2023-05-19T12:30:13;91020.91;;;13.70;54.50
69909;BME280;57190;47.918;8.112;2023-05-19T12:32:39;91032.09;;;14.07;54.19
69909;BME280;57190;47.918;8.112;2023-05-19T12:35:05;91025.28;;;13.90;52.62
69909;BME280;57190;47.918;8.112;2023-05-19T12:37:32;91024.16;;;13.67;53.53
69909;BME280;57190;47.918;8.112;2023-05-19T12:39:58;91036.06;;;13.56;53.54
69909;BME280;57190;47.918;8.112;2023-05-19T12:42:27;91035.69;;;13.28;53.79
69909;BME280;57190;47.918;8.112;2023-05-19T12:44:58;91032.03;;;13.13;54.61
69909;BME280;57190;47.918;8.112;2023-05-19T12:47:34;91035.31;;;13.00;55.75
69909;BME280;57190;47.918;8.112;2023-05-19T12:50:07;91031.09;;;12.94;55.35
69909;BME280;57190;47.918;8.112;2023-05-19T12:55:05;91034.78;;;12.98;55.72
69909;BME280;57190;47.918;8.112;2023-05-19T12:57:46;91033.72;;;12.99;55.29
69909;BME280;57190;47.918;8.112;2023-05-19T13:00:14;91031.09;;;12.88;55.42
69909;BME280;57190;47.918;8.112;2023-05-19T13:03:00;91023.88;;;12.89;55.13
69909;BME280;57190;47.918;8.112;2023-05-19T13:05:29;91018.00;;;12.87;55.70
69909;BME280;57190;47.918;8.112;2023-05-19T13:08:00;91022.84;;;12.80;56.95
69909;BME280;57190;47.918;8.112;2023-05-19T13:10:28;91015.91;;;12.79;56.28
69909;BME280;57190;47.918;8.112;2023-05-19T13:12:55;91023.59;;;12.90;55.36
69909;BME280;57190;47.918;8.112;2023-05-19T13:15:22;91017.41;;;13.00;56.01
69909;BME280;57190;47.918;8.112;2023-05-19T13:17:51;91014.88;;;13.14;55.08
69909;BME280;57190;47.918;8.112;2023-05-19T13:20:17;91009.03;;;13.07;55.11
69909;BME280;57190;47.918;8.112;2023-05-19T13:29:30;91007.75;;;13.39;54.55
69909;BME280;57190;47.918;8.112;2023-05-19T13:31:56;90999.69;;;13.44;54.75
69909;BME280;57190;47.918;8.112;2023-05-19T13:34:21;91008.28;;;13.41;55.04
69909;BME280;57190;47.918;8.112;2023-05-19T13:36:47;91004.66;;;13.21;55.33
69909;BME280;57190;47.918;8.112;2023-05-19T13:39:13;91002.94;;;13.36;55.60
69909;BME280;57190;47.918;8.112;2023-05-19T13:41:38;91004.41;;;13.18;55.26
69909;BME280;57190;47.918;8.112;2023-05-19T13:44:04;91006.50;;;12.86;55.80
69909;BME280;57190;47.918;8.112;2023-05-19T13:46:29;91009.88;;;13.02;56.72
69909;BME280;57190;47.918;8.112;2023-05-19T13:48:55;91008.03;;;12.98;56.28
69909;BME280;57190;47.918;8.112;2023-05-19T13:51:20;91002.16;;;12.96;56.47
69909;BME280;57190;47.918;8.112;2023-05-19T13:53:46;91009.78;;;12.73;56.98
69909;BME280;57190;47.918;8.112;2023-05-19T13:56:11;91007.13;;;12.68;57.76
69909;BME280;57190;47.918;8.112;2023-05-19T13:58:37;91006.59;;;12.66;56.98
69909;BME280;57190;47.918;8.112;2023-05-19T14:01:02;91006.84;;;12.69;57.84
69909;BME280;57190;47.918;8.112;2023-05-19T14:03:28;91003.34;;;12.74;57.13